Time;durP1;ratioP1;P1;durP2;ratioP2;P2;SDS_P1;SDS_P2;PMS_P1;PMS_P2;Temp;Humidity;BMP_temperature;BMP_pressure;BME280_temperature;BME280_humidity;BME280_pressure;Samples;Min_cycle;Max_cycle;Signal;HPM_P1;HPM_P2
2023/06/07 00:00:18;;;;;;;0.70;0.70;;;;;;;;;;5042795;28;20425;-72
2023/06/07 00:02:45;;;;;;;1.05;0.75;;;;;;;;;;5040083;28;20542;-72
2023/06/07 00:05:13;;;;;;;0.70;0.70;;;;;;;;;;5039561;28;20433;-72
2023/06/07 00:07:43;;;;;;;1.10;0.80;;;;;;;;;;5041691;28;20703;-72
2023/06/07 00:10:10;;;;;;;0.68;0.68;;;;;;;;;;5040271;28;20427;-73
2023/06/07 00:12:42;;;;;;;0.60;0.60;;;;;;;;;;5040996;28;20829;-71
2023/06/07 00:15:10;;;;;;;1.08;0.57;;;;;;;;;;5057848;28;20903;-72
2023/06/07 00:17:44;;;;;;;0.85;0.73;;;;;;;;;;5040138;28;21350;-72
2023/06/07 00:20:12;;;;;;;0.60;0.57;;;;;;;;;;5038186;28;20440;-72
2023/06/07 00:23:05;;;;;;;1.00;0.50;;;;;;;;;;5037895;28;20910;-73
2023/06/07 00:25:36;;;;;;;1.00;1.00;;;;;;;;;;5032744;28;20842;-73
2023/06/07 00:28:03;;;;;;;0.90;0.90;;;;;;;;;;5034544;28;20634;-73
2023/06/07 00:30:30;;;;;;;0.70;0.70;;;;;;;;;;5038409;28;20436;-73
2023/06/07 00:32:57;;;;;;;0.63;0.63;;;;;;;;;;5040173;28;20483;-73
2023/06/07 00:35:27;;;;;;;0.35;0.35;;;;;;;;;;5041170;28;20436;-72
2023/06/07 00:37:54;;;;;;;1.83;0.90;;;;;;;;;;5038124;28;20437;-73
2023/06/07 00:40:21;;;;;;;1.42;1.08;;;;;;;;;;5035203;28;20956;-73
2023/06/07 00:42:48;;;;;;;0.70;0.70;;;;;;;;;;5037010;28;20439;-73
2023/06/07 00:45:15;;;;;;;0.70;0.70;;;;;;;;;;5042530;28;20435;-73
2023/06/07 00:47:42;;;;;;;1.27;0.88;;;;;;;;;;5072080;28;20540;-73
2023/06/07 00:50:10;;;;;;;0.90;0.55;;;;;;;;;;5042145;28;20429;-73
2023/06/07 00:52:38;;;;;;;0.60;0.60;;;;;;;;;;5038478;28;20440;-73
2023/06/07 00:55:05;;;;;;;0.68;0.68;;;;;;;;;;5040832;28;20433;-73
2023/06/07 00:57:38;;;;;;;1.00;0.95;;;;;;;;;;5068996;28;20426;-73
2023/06/07 01:00:13;;;;;;;0.60;0.60;;;;;;;;;;5035539;28;20540;-73
2023/06/07 01:02:41;;;;;;;1.05;0.98;;;;;;;;;;5066989;28;20474;-73
2023/06/07 01:05:12;;;;;;;0.80;0.80;;;;;;;;;;5035198;28;21060;-73
2023/06/07 01:07:39;;;;;;;0.73;0.73;;;;;;;;;;5034940;28;20620;-73
2023/06/07 01:10:09;;;;;;;1.10;0.93;;;;;;;;;;5065131;28;20876;-73
2023/06/07 01:12:43;;;;;;;0.90;0.90;;;;;;;;;;5040807;28;20435;-73
2023/06/07 01:15:19;;;;;;;0.50;0.50;;;;;;;;;;5034785;28;20468;-73
2023/06/07 01:17:51;;;;;;;0.93;0.93;;;;;;;;;;5035865;28;20502;-73
2023/06/07 01:20:20;;;;;;;0.80;0.70;;;;;;;;;;5069055;28;20862;-73
2023/06/07 01:22:51;;;;;;;0.80;0.80;;;;;;;;;;5037333;28;20927;-73
2023/06/07 01:25:18;;;;;;;0.70;0.70;;;;;;;;;;5035453;28;20475;-73
2023/06/07 01:27:46;;;;;;;0.70;0.70;;;;;;;;;;5033718;28;20468;-73
2023/06/07 01:30:14;;;;;;;0.63;0.63;;;;;;;;;;5025974;28;20471;-73
2023/06/07 01:32:42;;;;;;;0.87;0.87;;;;;;;;;;5033809;28;20806;-73
2023/06/07 01:35:10;;;;;;;2.38;1.10;;;;;;;;;;5032723;28;20459;-73
2023/06/07 01:37:37;;;;;;;1.02;0.90;;;;;;;;;;5031098;28;20466;-73
2023/06/07 01:40:06;;;;;;;0.85;0.85;;;;;;;;;;5033831;28;21308;-73
2023/06/07 01:42:34;;;;;;;1.60;0.73;;;;;;;;;;5033048;28;20974;-73
2023/06/07 01:45:05;;;;;;;1.10;1.00;;;;;;;;;;5032753;28;20433;-73
2023/06/07 01:47:35;;;;;;;0.70;0.70;;;;;;;;;;5036631;28;20445;-73
2023/06/07 01:50:04;;;;;;;0.57;0.57;;;;;;;;;;5035734;28;20437;-73
2023/06/07 01:52:32;;;;;;;1.25;1.13;;;;;;;;;;5033279;28;20851;-73
2023/06/07 01:54:59;;;;;;;0.93;0.93;;;;;;;;;;5034110;28;20520;-73
2023/06/07 01:57:44;;;;;;;0.85;0.85;;;;;;;;;;5031021;28;20439;-73
2023/06/07 02:00:18;;;;;;;1.33;1.00;;;;;;;;;;5032418;28;20434;-73
2023/06/07 02:02:48;;;;;;;0.90;0.90;;;;;;;;;;5035657;28;20507;-73
2023/06/07 02:05:22;;;;;;;0.80;0.80;;;;;;;;;;5031885;28;20831;-73
2023/06/07 02:07:51;;;;;;;0.80;0.70;;;;;;;;;;5062443;28;20437;-73
2023/06/07 02:10:20;;;;;;;1.10;1.10;;;;;;;;;;5065442;28;20514;-73
2023/06/07 02:12:52;;;;;;;1.70;0.90;;;;;;;;;;5033467;28;20426;-73
2023/06/07 02:15:22;;;;;;;1.73;1.08;;;;;;;;;;5035716;28;20440;-73
2023/06/07 02:17:57;;;;;;;0.82;0.82;;;;;;;;;;5033915;28;20433;-73
2023/06/07 02:20:28;;;;;;;0.88;0.88;;;;;;;;;;5033661;28;20441;-73
2023/06/07 02:22:56;;;;;;;0.90;0.90;;;;;;;;;;5030837;28;20827;-72
2023/06/07 02:25:24;;;;;;;0.93;0.93;;;;;;;;;;5048691;28;20472;-73
2023/06/07 02:27:52;;;;;;;0.90;0.90;;;;;;;;;;5035906;28;20437;-73
2023/06/07 02:30:23;;;;;;;1.23;1.00;;;;;;;;;;5033504;28;20435;-73
2023/06/07 02:32:50;;;;;;;0.80;0.80;;;;;;;;;;5067811;28;20987;-73
2023/06/07 02:35:18;;;;;;;1.40;1.00;;;;;;;;;;5032222;28;20858;-73
2023/06/07 02:37:45;;;;;;;2.30;1.20;;;;;;;;;;5033635;28;20449;-73
2023/06/07 02:40:13;;;;;;;0.75;0.75;;;;;;;;;;5062852;28;20433;-73
2023/06/07 02:42:44;;;;;;;0.90;0.90;;;;;;;;;;5034104;28;20994;-73
2023/06/07 02:45:12;;;;;;;0.90;0.82;;;;;;;;;;5035786;28;20451;-73
2023/06/07 02:47:40;;;;;;;0.93;0.90;;;;;;;;;;5033440;28;20468;-73
2023/06/07 02:50:10;;;;;;;0.90;0.90;;;;;;;;;;5033194;28;20436;-73
2023/06/07 02:52:37;;;;;;;0.80;0.80;;;;;;;;;;5036261;28;20450;-73
2023/06/07 02:55:05;;;;;;;0.70;0.70;;;;;;;;;;5064083;28;21061;-73
2023/06/07 02:57:32;;;;;;;1.00;1.00;;;;;;;;;;5031057;28;20448;-73
2023/06/07 02:59:59;;;;;;;0.80;0.80;;;;;;;;;;5032979;28;20520;-73
2023/06/07 03:02:27;;;;;;;0.60;0.60;;;;;;;;;;5064847;28;21089;-73
2023/06/07 03:04:56;;;;;;;0.70;0.70;;;;;;;;;;5032220;28;20820;-73
2023/06/07 03:07:23;;;;;;;2.03;1.17;;;;;;;;;;5034155;28;20463;-73
2023/06/07 03:09:51;;;;;;;0.88;0.88;;;;;;;;;;5031498;28;20946;-73
2023/06/07 03:12:22;;;;;;;0.80;0.80;;;;;;;;;;5039572;28;20433;-73
2023/06/07 03:14:49;;;;;;;1.65;1.23;;;;;;;;;;5033628;28;20430;-73
2023/06/07 03:17:17;;;;;;;4.70;0.70;;;;;;;;;;5032046;28;20483;-73
2023/06/07 03:19:44;;;;;;;1.00;1.00;;;;;;;;;;5032462;28;20491;-73
2023/06/07 03:22:11;;;;;;;2.90;1.05;;;;;;;;;;5031389;28;20465;-73
2023/06/07 03:24:39;;;;;;;1.05;0.95;;;;;;;;;;5034068;28;20433;-73
2023/06/07 03:27:10;;;;;;;2.38;1.08;;;;;;;;;;5032602;28;20455;-73
2023/06/07 03:29:37;;;;;;;0.98;0.98;;;;;;;;;;5065459;28;20437;-73
2023/06/07 03:32:05;;;;;;;0.82;0.82;;;;;;;;;;5027316;28;20491;-73
2023/06/07 03:34:32;;;;;;;0.95;0.82;;;;;;;;;;5036009;28;21177;-71
2023/06/07 03:37:02;;;;;;;1.10;0.90;;;;;;;;;;5033539;28;20508;-72
2023/06/07 03:39:31;;;;;;;1.50;1.13;;;;;;;;;;5033990;28;20449;-72
2023/06/07 03:41:59;;;;;;;0.83;0.83;;;;;;;;;;5034698;28;20536;-72
2023/06/07 03:44:27;;;;;;;0.98;0.88;;;;;;;;;;5035715;28;20803;-72
2023/06/07 03:46:54;;;;;;;1.08;1.08;;;;;;;;;;5036504;28;20441;-73
2023/06/07 03:49:21;;;;;;;1.48;1.38;;;;;;;;;;5036423;28;20432;-72
2023/06/07 03:51:49;;;;;;;0.98;0.90;;;;;;;;;;5067854;28;20935;-73
2023/06/07 03:54:17;;;;;;;1.27;1.23;;;;;;;;;;5035450;28;20443;-72
2023/06/07 03:56:44;;;;;;;1.13;1.00;;;;;;;;;;5037798;28;20436;-72
2023/06/07 03:59:12;;;;;;;1.50;1.00;;;;;;;;;;5034627;28;20750;-73
2023/06/07 04:01:40;;;;;;;2.93;1.03;;;;;;;;;;5033695;28;20528;-72
2023/06/07 04:04:08;;;;;;;0.93;0.93;;;;;;;;;;5035067;28;20549;-72
2023/06/07 04:06:39;;;;;;;1.77;0.97;;;;;;;;;;5064989;28;20433;-72
2023/06/07 04:09:09;;;;;;;1.60;1.00;;;;;;;;;;5035267;28;20923;-72
2023/06/07 04:11:39;;;;;;;0.60;0.60;;;;;;;;;;5039827;28;20437;-72
2023/06/07 04:14:06;;;;;;;0.98;0.98;;;;;;;;;;5033592;28;20926;-72
2023/06/07 04:16:33;;;;;;;1.02;1.00;;;;;;;;;;5038066;28;20434;-72
2023/06/07 04:19:00;;;;;;;0.95;0.80;;;;;;;;;;5032402;28;20761;-72
2023/06/07 04:21:28;;;;;;;2.65;0.93;;;;;;;;;;5035333;28;20430;-72
2023/06/07 04:23:56;;;;;;;0.70;0.70;;;;;;;;;;5033333;28;20528;-73
2023/06/07 04:26:24;;;;;;;0.80;0.80;;;;;;;;;;5039439;28;20433;-72
2023/06/07 04:28:51;;;;;;;2.20;1.00;;;;;;;;;;5034909;28;20448;-72
2023/06/07 04:31:22;;;;;;;1.27;1.27;;;;;;;;;;5037482;28;20435;-72
2023/06/07 04:33:53;;;;;;;1.60;1.25;;;;;;;;;;5030414;28;20602;-73
2023/06/07 04:36:22;;;;;;;0.75;0.75;;;;;;;;;;5037243;28;20444;-73
2023/06/07 04:38:50;;;;;;;1.42;0.82;;;;;;;;;;5033071;28;22267;-72
2023/06/07 04:41:42;;;;;;;0.85;0.85;;;;;;;;;;5036907;28;20429;-73
2023/06/07 04:44:11;;;;;;;1.10;1.00;;;;;;;;;;5037144;28;20463;-73
2023/06/07 04:46:56;;;;;;;1.67;0.98;;;;;;;;;;5032852;28;20452;-73
2023/06/07 04:49:33;;;;;;;1.40;1.30;;;;;;;;;;5034052;28;20542;-71
2023/06/07 04:52:01;;;;;;;0.80;0.80;;;;;;;;;;5067526;28;20506;-71
2023/06/07 04:54:29;;;;;;;0.90;0.90;;;;;;;;;;5035436;28;20483;-71
2023/06/07 04:56:56;;;;;;;1.30;1.20;;;;;;;;;;5033659;28;20436;-71
2023/06/07 04:59:24;;;;;;;1.48;0.90;;;;;;;;;;5034559;28;20428;-71
2023/06/07 05:01:55;;;;;;;1.10;1.00;;;;;;;;;;5035595;28;21012;-72
2023/06/07 05:04:22;;;;;;;1.30;1.20;;;;;;;;;;5035605;28;20903;-72
2023/06/07 05:06:50;;;;;;;1.40;1.00;;;;;;;;;;5034445;28;20437;-72
2023/06/07 05:09:17;;;;;;;1.08;0.98;;;;;;;;;;5035325;28;21032;-72
2023/06/07 05:11:44;;;;;;;1.00;1.00;;;;;;;;;;5039026;28;20621;-72
2023/06/07 05:14:11;;;;;;;4.50;1.40;;;;;;;;;;5032352;28;20467;-72
2023/06/07 05:16:38;;;;;;;0.90;0.90;;;;;;;;;;5032978;28;21452;-72
2023/06/07 05:19:10;;;;;;;1.13;1.03;;;;;;;;;;5060839;28;20464;-72
2023/06/07 05:21:38;;;;;;;0.80;0.80;;;;;;;;;;5031704;28;20938;-71
2023/06/07 05:24:06;;;;;;;1.03;1.00;;;;;;;;;;5030435;28;21173;-72
2023/06/07 05:26:33;;;;;;;1.97;1.03;;;;;;;;;;5037105;28;20440;-72
2023/06/07 05:29:00;;;;;;;1.27;1.10;;;;;;;;;;5031785;28;20783;-72
2023/06/07 05:31:29;;;;;;;1.17;1.08;;;;;;;;;;5031260;28;21006;-72
2023/06/07 05:33:56;;;;;;;1.75;0.98;;;;;;;;;;5061754;28;20429;-72
2023/06/07 05:36:23;;;;;;;2.80;1.23;;;;;;;;;;5033273;28;20433;-72
2023/06/07 05:38:50;;;;;;;1.00;1.00;;;;;;;;;;5036323;28;22011;-72
2023/06/07 05:41:18;;;;;;;1.00;0.80;;;;;;;;;;5034754;28;20421;-72
2023/06/07 05:43:45;;;;;;;1.00;1.00;;;;;;;;;;5034137;28;20439;-72
2023/06/07 05:46:12;;;;;;;1.65;1.10;;;;;;;;;;5034451;28;20429;-72
2023/06/07 05:48:39;;;;;;;1.20;1.10;;;;;;;;;;5035319;28;20507;-72
2023/06/07 05:51:06;;;;;;;1.10;1.00;;;;;;;;;;5033373;28;20436;-72
2023/06/07 05:53:35;;;;;;;0.80;0.80;;;;;;;;;;5063058;28;20526;-72
2023/06/07 05:56:02;;;;;;;1.33;1.10;;;;;;;;;;5032885;28;20433;-72
2023/06/07 05:58:31;;;;;;;5.45;1.40;;;;;;;;;;5034707;28;20438;-73
2023/06/07 06:00:59;;;;;;;0.83;0.83;;;;;;;;;;5032169;28;20425;-72
2023/06/07 06:03:26;;;;;;;1.60;1.00;;;;;;;;;;5035859;28;20464;-72
2023/06/07 06:05:54;;;;;;;1.48;1.20;;;;;;;;;;5033890;28;20436;-72
2023/06/07 06:08:22;;;;;;;1.52;1.15;;;;;;;;;;5061761;28;20950;-72
2023/06/07 06:10:49;;;;;;;5.20;1.30;;;;;;;;;;5037931;28;20433;-72
2023/06/07 06:13:17;;;;;;;6.22;1.58;;;;;;;;;;5063392;28;20529;-72
2023/06/07 06:15:44;;;;;;;1.08;1.05;;;;;;;;;;5033156;28;20433;-72
2023/06/07 06:18:11;;;;;;;1.70;1.60;;;;;;;;;;5033519;28;20579;-72
2023/06/07 06:20:38;;;;;;;3.13;1.03;;;;;;;;;;5034182;28;20986;-72
2023/06/07 06:23:06;;;;;;;1.10;1.10;;;;;;;;;;5032172;28;20449;-72
2023/06/07 06:25:33;;;;;;;1.27;1.20;;;;;;;;;;5031667;28;20456;-72
2023/06/07 06:28:02;;;;;;;1.10;1.10;;;;;;;;;;5030658;28;20787;-72
2023/06/07 06:30:38;;;;;;;1.10;1.10;;;;;;;;;;5032480;28;20433;-72
2023/06/07 06:33:05;;;;;;;0.90;0.90;;;;;;;;;;5047004;28;20527;-71
2023/06/07 06:35:33;;;;;;;1.27;1.23;;;;;;;;;;5036543;28;20437;-72
2023/06/07 06:38:00;;;;;;;1.15;1.13;;;;;;;;;;5037871;28;20452;-71
2023/06/07 06:40:30;;;;;;;1.70;1.30;;;;;;;;;;5033585;28;20421;-71
2023/06/07 06:43:02;;;;;;;3.25;1.13;;;;;;;;;;5062696;28;20421;-72
2023/06/07 06:45:32;;;;;;;2.10;1.30;;;;;;;;;;5067320;28;20436;-71
2023/06/07 06:48:06;;;;;;;1.33;1.15;;;;;;;;;;5037913;28;20433;-71
2023/06/07 06:50:33;;;;;;;1.10;0.90;;;;;;;;;;5036153;28;20734;-71
2023/06/07 06:53:01;;;;;;;0.90;0.80;;;;;;;;;;5034765;28;21107;-71
2023/06/07 06:55:29;;;;;;;1.13;1.13;;;;;;;;;;5036373;28;20525;-72
2023/06/07 06:57:56;;;;;;;0.70;0.70;;;;;;;;;;5032732;28;20468;-71
2023/06/07 07:00:24;;;;;;;1.63;1.00;;;;;;;;;;5035388;28;20429;-72
2023/06/07 07:02:51;;;;;;;1.00;1.00;;;;;;;;;;5034351;28;20433;-71
2023/06/07 07:05:22;;;;;;;1.00;1.00;;;;;;;;;;5068666;28;20529;-71
2023/06/07 07:07:49;;;;;;;1.02;1.02;;;;;;;;;;5041489;28;20437;-71
2023/06/07 07:10:18;;;;;;;1.50;1.02;;;;;;;;;;5074509;28;20443;-71
2023/06/07 07:12:51;;;;;;;1.70;1.45;;;;;;;;;;5075227;28;20463;-72
2023/06/07 07:15:18;;;;;;;1.20;1.10;;;;;;;;;;5039377;28;20863;-72
2023/06/07 07:17:46;;;;;;;1.87;1.33;;;;;;;;;;5042875;28;20480;-72
2023/06/07 07:20:27;;;;;;;1.45;1.10;;;;;;;;;;5038973;28;20439;-71
2023/06/07 07:22:55;;;;;;;1.50;1.40;;;;;;;;;;5044070;28;20455;-72
2023/06/07 07:25:22;;;;;;;1.45;1.35;;;;;;;;;;5043898;28;20459;-72
2023/06/07 07:27:50;;;;;;;0.80;0.80;;;;;;;;;;5040506;28;20516;-72
2023/06/07 07:30:17;;;;;;;1.15;1.05;;;;;;;;;;5041346;28;20437;-72
2023/06/07 07:32:45;;;;;;;1.83;1.73;;;;;;;;;;5041462;28;20516;-72
2023/06/07 07:35:14;;;;;;;1.13;1.13;;;;;;;;;;5040894;28;20486;-72
2023/06/07 07:37:41;;;;;;;1.35;1.30;;;;;;;;;;5037397;28;20432;-72
2023/06/07 07:40:09;;;;;;;1.10;1.10;;;;;;;;;;5034567;28;20487;-72
2023/06/07 07:42:37;;;;;;;1.42;1.33;;;;;;;;;;5042249;28;20425;-72
2023/06/07 07:45:05;;;;;;;1.80;1.37;;;;;;;;;;5043656;28;20429;-72
2023/06/07 07:47:33;;;;;;;1.00;1.00;;;;;;;;;;5039816;28;20449;-72
2023/06/07 07:50:00;;;;;;;1.00;1.00;;;;;;;;;;5042165;28;20429;-72
2023/06/07 07:52:28;;;;;;;1.75;1.30;;;;;;;;;;5040897;28;20433;-72
2023/06/07 07:54:55;;;;;;;1.60;1.50;;;;;;;;;;5036734;28;20494;-72
2023/06/07 07:57:22;;;;;;;1.00;1.00;;;;;;;;;;5043734;28;20437;-72
2023/06/07 07:59:50;;;;;;;1.13;1.13;;;;;;;;;;5043303;28;20440;-72
2023/06/07 08:02:17;;;;;;;1.77;1.20;;;;;;;;;;5039946;28;20528;-72
2023/06/07 08:04:45;;;;;;;4.47;1.58;;;;;;;;;;5072004;28;20975;-72
2023/06/07 08:07:15;;;;;;;1.33;1.33;;;;;;;;;;5043066;28;20486;-72
2023/06/07 08:09:42;;;;;;;2.17;1.38;;;;;;;;;;5071403;28;20429;-72
2023/06/07 08:12:11;;;;;;;1.73;1.55;;;;;;;;;;5077142;28;20469;-72
2023/06/07 08:14:39;;;;;;;1.40;1.30;;;;;;;;;;5036984;28;20465;-72
2023/06/07 08:17:10;;;;;;;1.70;1.10;;;;;;;;;;5037253;28;20919;-72
2023/06/07 08:19:40;;;;;;;2.57;1.00;;;;;;;;;;5041471;28;20474;-72
2023/06/07 08:22:07;;;;;;;3.33;1.20;;;;;;;;;;5040952;28;20519;-72
2023/06/07 08:24:37;;;;;;;1.57;1.47;;;;;;;;;;5041617;28;20425;-72
2023/06/07 08:27:07;;;;;;;1.40;1.40;;;;;;;;;;5042039;28;20437;-72
2023/06/07 08:29:35;;;;;;;1.70;1.60;;;;;;;;;;5038693;28;20506;-72
2023/06/07 08:32:02;;;;;;;1.27;1.27;;;;;;;;;;5043256;28;20968;-72
2023/06/07 08:34:32;;;;;;;1.48;1.38;;;;;;;;;;5038424;28;20444;-71
2023/06/07 08:37:01;;;;;;;1.80;1.00;;;;;;;;;;5039297;28;20429;-72
2023/06/07 08:39:28;;;;;;;1.57;1.47;;;;;;;;;;5041891;28;21209;-71
2023/06/07 08:41:55;;;;;;;1.37;1.27;;;;;;;;;;5040823;28;20435;-71
2023/06/07 08:44:23;;;;;;;1.63;1.53;;;;;;;;;;5042396;28;20431;-72
2023/06/07 08:46:51;;;;;;;1.50;1.40;;;;;;;;;;5039598;28;20433;-71
2023/06/07 08:49:18;;;;;;;1.23;1.23;;;;;;;;;;5042120;28;20437;-72
2023/06/07 08:51:46;;;;;;;1.42;1.35;;;;;;;;;;5042080;28;20433;-72
2023/06/07 08:54:14;;;;;;;1.73;1.63;;;;;;;;;;5038763;28;20441;-72
2023/06/07 08:56:48;;;;;;;2.13;1.58;;;;;;;;;;5039870;28;20520;-72
2023/06/07 08:59:19;;;;;;;1.52;1.42;;;;;;;;;;5035596;28;20449;-72
2023/06/07 09:01:47;;;;;;;1.60;1.50;;;;;;;;;;5039379;28;20425;-71
2023/06/07 09:04:16;;;;;;;1.77;1.33;;;;;;;;;;5041285;28;20504;-72
2023/06/07 09:06:43;;;;;;;1.77;1.30;;;;;;;;;;5042069;28;21015;-72
2023/06/07 09:09:11;;;;;;;1.55;1.25;;;;;;;;;;5040186;28;20966;-72
2023/06/07 09:11:38;;;;;;;2.30;1.58;;;;;;;;;;5075707;28;20816;-71
2023/06/07 09:14:05;;;;;;;3.47;2.03;;;;;;;;;;5039013;28;20433;-72
2023/06/07 09:16:33;;;;;;;1.10;1.10;;;;;;;;;;5039420;28;20915;-71
2023/06/07 09:19:00;;;;;;;1.42;1.33;;;;;;;;;;5034931;28;20967;-72
2023/06/07 09:21:29;;;;;;;1.60;1.50;;;;;;;;;;5068399;28;20622;-72
2023/06/07 09:23:58;;;;;;;1.30;1.30;;;;;;;;;;5039590;28;20735;-71
2023/06/07 09:26:39;;;;;;;1.30;1.30;;;;;;;;;;5037284;28;20444;-72
2023/06/07 09:29:07;;;;;;;1.70;1.60;;;;;;;;;;5037362;28;20437;-72
2023/06/07 09:31:36;;;;;;;1.40;1.30;;;;;;;;;;5039029;28;20844;-71
2023/06/07 09:34:22;;;;;;;1.38;1.38;;;;;;;;;;5041104;28;20433;-72
2023/06/07 09:36:52;;;;;;;1.50;1.40;;;;;;;;;;5041808;28;20784;-71
2023/06/07 09:39:21;;;;;;;1.80;1.70;;;;;;;;;;5037745;28;20954;-71
2023/06/07 09:41:54;;;;;;;1.30;1.20;;;;;;;;;;5033424;28;20433;-72
2023/06/07 09:44:22;;;;;;;2.42;1.30;;;;;;;;;;5046504;28;20429;-71
2023/06/07 09:46:51;;;;;;;1.60;1.50;;;;;;;;;;5038408;28;20517;-71
2023/06/07 09:49:32;;;;;;;1.23;1.23;;;;;;;;;;5037161;28;20433;-71
2023/06/07 09:52:02;;;;;;;1.42;1.33;;;;;;;;;;5033351;28;20945;-72
2023/06/07 09:54:39;;;;;;;1.30;1.30;;;;;;;;;;5039237;28;20433;-71
2023/06/07 09:57:10;;;;;;;2.10;1.73;;;;;;;;;;5038326;28;20516;-71
2023/06/07 09:59:55;;;;;;;1.70;1.60;;;;;;;;;;5038388;28;20527;-71
2023/06/07 10:02:29;;;;;;;1.83;1.73;;;;;;;;;;5037439;28;20432;-71
2023/06/07 10:04:59;;;;;;;1.40;1.30;;;;;;;;;;5036630;28;20432;-71
2023/06/07 10:07:38;;;;;;;1.47;1.43;;;;;;;;;;5040264;28;20433;-71
2023/06/07 10:10:07;;;;;;;1.50;1.40;;;;;;;;;;5069308;28;20799;-71
2023/06/07 10:12:40;;;;;;;1.33;1.23;;;;;;;;;;5043713;28;20437;-72
2023/06/07 10:15:09;;;;;;;1.55;1.23;;;;;;;;;;5067009;28;20444;-71
2023/06/07 10:17:49;;;;;;;1.73;1.63;;;;;;;;;;5038396;28;21080;-71
2023/06/07 10:20:30;;;;;;;2.30;1.60;;;;;;;;;;5042420;28;20460;-72
2023/06/07 10:22:59;;;;;;;1.70;1.55;;;;;;;;;;5072408;28;20429;-72
2023/06/07 10:25:30;;;;;;;1.50;1.40;;;;;;;;;;5037261;28;20456;-72
2023/06/07 10:27:57;;;;;;;1.70;1.60;;;;;;;;;;5030839;28;20478;-72
2023/06/07 10:30:25;;;;;;;1.67;1.63;;;;;;;;;;5032309;28;20432;-72
2023/06/07 10:32:53;;;;;;;3.37;2.07;;;;;;;;;;5037593;28;20839;-73
2023/06/07 10:35:21;;;;;;;2.00;1.55;;;;;;;;;;5037192;28;20433;-73
2023/06/07 10:37:53;;;;;;;1.83;1.40;;;;;;;;;;5040807;28;20909;-73
2023/06/07 10:40:21;;;;;;;1.70;1.60;;;;;;;;;;5055420;28;20436;-72
2023/06/07 10:42:50;;;;;;;1.63;1.52;;;;;;;;;;5037491;28;20435;-72
2023/06/07 10:45:18;;;;;;;1.83;1.73;;;;;;;;;;5040143;28;20456;-72
2023/06/07 10:47:48;;;;;;;1.80;1.70;;;;;;;;;;5038329;28;20442;-72
2023/06/07 10:50:28;;;;;;;2.13;2.03;;;;;;;;;;5036590;28;20429;-72
2023/06/07 10:52:56;;;;;;;1.70;1.60;;;;;;;;;;5038455;28;20659;-72
2023/06/07 10:55:26;;;;;;;2.05;1.77;;;;;;;;;;5040239;28;20536;-72
2023/06/07 10:57:55;;;;;;;2.07;1.97;;;;;;;;;;5037384;28;20439;-72
2023/06/07 11:00:25;;;;;;;1.87;1.53;;;;;;;;;;5037177;28;20521;-72
2023/06/07 11:03:05;;;;;;;1.33;1.25;;;;;;;;;;5035223;28;20447;-72
2023/06/07 11:05:51;;;;;;;1.88;1.77;;;;;;;;;;5040428;28;20849;-72
2023/06/07 11:08:23;;;;;;;2.08;1.90;;;;;;;;;;5035756;28;20432;-72
2023/06/07 11:10:50;;;;;;;2.03;1.93;;;;;;;;;;5040945;28;20487;-72
2023/06/07 11:13:17;;;;;;;2.58;1.40;;;;;;;;;;5041090;28;20437;-72
2023/06/07 11:15:47;;;;;;;2.83;1.77;;;;;;;;;;5040422;28;20464;-72
2023/06/07 11:18:16;;;;;;;1.70;1.60;;;;;;;;;;5041629;28;20433;-72
2023/06/07 11:20:48;;;;;;;1.98;1.65;;;;;;;;;;5040132;28;20433;-72
2023/06/07 11:23:26;;;;;;;1.58;1.55;;;;;;;;;;5040362;28;20464;-73
2023/06/07 11:26:00;;;;;;;3.92;1.67;;;;;;;;;;5052873;28;20988;-72
2023/06/07 11:28:29;;;;;;;1.63;1.52;;;;;;;;;;5038317;28;20496;-72
2023/06/07 11:30:56;;;;;;;1.55;1.50;;;;;;;;;;5038750;28;20537;-72
2023/06/07 11:33:24;;;;;;;1.60;1.50;;;;;;;;;;5038355;28;20544;-72
2023/06/07 11:35:55;;;;;;;1.88;1.77;;;;;;;;;;5039997;28;20722;-72
2023/06/07 11:38:26;;;;;;;1.93;1.83;;;;;;;;;;5054110;28;20455;-72
2023/06/07 11:40:54;;;;;;;1.60;1.50;;;;;;;;;;5047937;28;20946;-72
2023/06/07 11:43:23;;;;;;;1.55;1.45;;;;;;;;;;5038243;28;20436;-72
2023/06/07 11:45:51;;;;;;;1.60;1.50;;;;;;;;;;5031106;28;20491;-72
2023/06/07 11:48:18;;;;;;;1.75;1.70;;;;;;;;;;5031665;28;20429;-71
2023/06/07 11:50:47;;;;;;;2.17;1.93;;;;;;;;;;5054666;28;20437;-72
2023/06/07 11:53:17;;;;;;;1.90;1.65;;;;;;;;;;5038755;28;20947;-72
2023/06/07 11:55:46;;;;;;;1.90;1.80;;;;;;;;;;5041664;28;20433;-72
2023/06/07 11:58:13;;;;;;;1.60;1.50;;;;;;;;;;5076510;28;20974;-72
2023/06/07 12:00:42;;;;;;;1.27;1.17;;;;;;;;;;5041981;28;20495;-72
2023/06/07 12:03:10;;;;;;;1.20;1.10;;;;;;;;;;5042809;28;20843;-72
2023/06/07 12:05:38;;;;;;;1.55;1.45;;;;;;;;;;5074270;28;20433;-72
2023/06/07 12:08:11;;;;;;;1.88;1.38;;;;;;;;;;5040651;28;21439;-72
2023/06/07 12:10:38;;;;;;;1.58;1.48;;;;;;;;;;5043206;28;20510;-72
2023/06/07 12:13:11;;;;;;;1.13;1.13;;;;;;;;;;5043378;28;20433;-72
2023/06/07 12:15:42;;;;;;;1.35;1.25;;;;;;;;;;5037113;28;20468;-72
2023/06/07 12:18:16;;;;;;;1.42;1.30;;;;;;;;;;5038871;28;20524;-72
2023/06/07 12:20:43;;;;;;;1.33;1.23;;;;;;;;;;5040552;28;20456;-73
2023/06/07 12:23:12;;;;;;;1.80;1.20;;;;;;;;;;5041715;28;20491;-73
2023/06/07 12:25:42;;;;;;;3.35;1.20;;;;;;;;;;5042177;28;20520;-72
2023/06/07 12:28:14;;;;;;;1.35;1.35;;;;;;;;;;5043503;28;20483;-72
2023/06/07 12:30:42;;;;;;;1.70;1.60;;;;;;;;;;5039600;28;20437;-73
2023/06/07 12:33:13;;;;;;;1.20;1.20;;;;;;;;;;5040763;28;20520;-73
2023/06/07 12:35:46;;;;;;;1.27;1.27;;;;;;;;;;5040326;28;20516;-73
2023/06/07 12:38:13;;;;;;;1.30;1.20;;;;;;;;;;5040775;28;20476;-72
2023/06/07 12:40:42;;;;;;;1.35;1.25;;;;;;;;;;5037119;28;21402;-73
2023/06/07 12:43:09;;;;;;;1.13;1.13;;;;;;;;;;5041588;28;20421;-72
2023/06/07 12:45:36;;;;;;;1.83;1.73;;;;;;;;;;5040399;28;20913;-73
2023/06/07 12:48:04;;;;;;;1.20;1.20;;;;;;;;;;5040413;28;20483;-73
2023/06/07 12:50:34;;;;;;;1.27;1.17;;;;;;;;;;5043143;28;20441;-73
2023/06/07 12:53:01;;;;;;;1.35;1.35;;;;;;;;;;5041217;28;20480;-73
2023/06/07 12:55:29;;;;;;;1.40;1.30;;;;;;;;;;5042247;28;20955;-73
2023/06/07 12:58:09;;;;;;;1.38;1.27;;;;;;;;;;5042037;28;20433;-73
2023/06/07 13:00:39;;;;;;;1.40;1.30;;;;;;;;;;5036789;28;20476;-73
2023/06/07 13:03:06;;;;;;;1.70;1.27;;;;;;;;;;5039998;28;20463;-72
2023/06/07 13:05:33;;;;;;;1.80;1.70;;;;;;;;;;5039589;28;20430;-73
2023/06/07 13:08:01;;;;;;;1.20;1.20;;;;;;;;;;5040712;28;20794;-73
2023/06/07 13:10:34;;;;;;;2.87;1.40;;;;;;;;;;5041813;28;20437;-73
2023/06/07 13:13:01;;;;;;;1.38;1.38;;;;;;;;;;5042280;28;20441;-72
2023/06/07 13:15:31;;;;;;;1.27;1.17;;;;;;;;;;5040574;28;20445;-73
2023/06/07 13:18:03;;;;;;;1.30;1.20;;;;;;;;;;5042024;28;20516;-73
2023/06/07 13:20:31;;;;;;;1.00;1.00;;;;;;;;;;5041727;28;20786;-73
2023/06/07 13:22:58;;;;;;;1.30;1.20;;;;;;;;;;5073194;28;20435;-73
2023/06/07 13:25:25;;;;;;;1.10;1.10;;;;;;;;;;5039596;28;20453;-72
2023/06/07 13:27:53;;;;;;;1.30;1.20;;;;;;;;;;5038999;28;20433;-73
2023/06/07 13:30:20;;;;;;;1.48;1.10;;;;;;;;;;5039705;28;20534;-73
2023/06/07 13:32:50;;;;;;;1.30;1.30;;;;;;;;;;5039821;28;20433;-73
2023/06/07 13:35:26;;;;;;;1.10;1.10;;;;;;;;;;5040044;28;20433;-73
2023/06/07 13:38:00;;;;;;;1.20;1.20;;;;;;;;;;5069772;28;20433;-73
2023/06/07 13:40:28;;;;;;;1.00;1.00;;;;;;;;;;5072827;28;20506;-73
2023/06/07 13:42:55;;;;;;;1.17;1.17;;;;;;;;;;5040319;28;20515;-73
2023/06/07 13:45:22;;;;;;;1.08;1.08;;;;;;;;;;5040860;28;20848;-73
2023/06/07 13:47:50;;;;;;;1.13;1.13;;;;;;;;;;5040658;28;20425;-73
2023/06/07 13:50:17;;;;;;;1.00;1.00;;;;;;;;;;5032137;28;20460;-73
2023/06/07 13:52:44;;;;;;;1.30;1.30;;;;;;;;;;5037237;28;20478;-73
2023/06/07 13:55:12;;;;;;;1.17;1.17;;;;;;;;;;5041180;28;20437;-73
2023/06/07 13:57:39;;;;;;;1.47;1.30;;;;;;;;;;5041164;28;20461;-73
2023/06/07 14:00:08;;;;;;;1.33;1.27;;;;;;;;;;5037597;28;20463;-73
2023/06/07 14:02:36;;;;;;;0.83;0.83;;;;;;;;;;5036638;28;20499;-73
2023/06/07 14:05:07;;;;;;;1.20;1.20;;;;;;;;;;5038277;28;20811;-72
2023/06/07 14:07:35;;;;;;;1.40;1.30;;;;;;;;;;5038420;28;20440;-73
2023/06/07 14:10:02;;;;;;;1.70;1.03;;;;;;;;;;5038656;28;21075;-72
2023/06/07 14:12:29;;;;;;;1.23;1.20;;;;;;;;;;5036882;28;20439;-73
2023/06/07 14:15:01;;;;;;;1.35;1.30;;;;;;;;;;5038375;28;21009;-73
2023/06/07 14:17:28;;;;;;;0.90;0.90;;;;;;;;;;5033907;28;20441;-73
2023/06/07 14:19:55;;;;;;;2.47;1.20;;;;;;;;;;5041172;28;20425;-71
2023/06/07 14:22:23;;;;;;;0.80;0.80;;;;;;;;;;5037679;28;20429;-72
2023/06/07 14:24:52;;;;;;;1.15;1.15;;;;;;;;;;5037896;28;20429;-72
2023/06/07 14:27:19;;;;;;;1.48;1.10;;;;;;;;;;5042549;28;20930;-72
2023/06/07 14:29:46;;;;;;;0.90;0.90;;;;;;;;;;5038932;28;20788;-73
2023/06/07 14:32:14;;;;;;;1.02;1.02;;;;;;;;;;5039139;28;20421;-72
2023/06/07 14:34:44;;;;;;;1.25;1.15;;;;;;;;;;5037985;28;20425;-72
2023/06/07 14:37:11;;;;;;;1.08;1.08;;;;;;;;;;5038285;28;20938;-73
2023/06/07 14:39:40;;;;;;;2.28;1.23;;;;;;;;;;5040440;28;20482;-73
2023/06/07 14:42:07;;;;;;;1.20;1.13;;;;;;;;;;5036682;28;20429;-72
2023/06/07 14:44:35;;;;;;;1.35;1.35;;;;;;;;;;5037170;28;20516;-72
2023/06/07 14:47:02;;;;;;;1.27;1.20;;;;;;;;;;5036210;28;20429;-72
2023/06/07 14:49:29;;;;;;;1.10;1.10;;;;;;;;;;5040439;28;20441;-72
2023/06/07 14:51:58;;;;;;;1.20;1.10;;;;;;;;;;5038838;28;20436;-72
2023/06/07 14:54:25;;;;;;;1.42;1.33;;;;;;;;;;5032519;28;20428;-73